Time;durP1;ratioP1;P1;durP2;ratioP2;P2;SDS_P1;SDS_P2;PMS_P1;PMS_P2;Temp;Humidity;BMP_temperature;BMP_pressure;BME280_temperature;BME280_humidity;BME280_pressure;Samples;Min_cycle;Max_cycle;Signal;HPM_P1;HPM_P2
2022/06/20 00:00:13;;;;;;;;;;;15.80;99.90;;;;;;5032230;28;20358;-64
2022/06/20 00:02:43;;;;;;;;;;;15.80;99.90;;;;;;5031717;28;20324;-63
2022/06/20 00:05:12;;;;;;;;;;;15.80;99.90;;;;;;5032245;28;19936;-64
2022/06/20 00:07:40;;;;;;;;;;;15.80;99.90;;;;;;5032400;28;19925;-66
2022/06/20 00:10:07;;;;;;;;;;;15.80;99.90;;;;;;5031345;28;19964;-64
2022/06/20 00:12:34;;;;;;;;;;;15.80;99.90;;;;;;5032263;28;19925;-64
2022/06/20 00:15:01;;;;;;;;;;;15.80;99.90;;;;;;5032272;28;19925;-64
2022/06/20 00:17:28;;;;;;;;;;;15.80;99.90;;;;;;5032371;28;19926;-63
2022/06/20 00:19:55;;;;;;;;;;;15.80;99.90;;;;;;5032010;28;19925;-64
2022/06/20 00:22:21;;;;;;;;;;;15.70;99.90;;;;;;5031891;28;19929;-64
2022/06/20 00:24:50;;;;;;;;;;;15.80;99.90;;;;;;5032075;28;20290;-64
2022/06/20 00:27:16;;;;;;;;;;;15.80;99.90;;;;;;5031796;28;19925;-64
2022/06/20 00:29:44;;;;;;;;;;;15.80;99.90;;;;;;5031867;28;20033;-64
2022/06/20 00:32:11;;;;;;;;;;;15.70;99.90;;;;;;5032088;28;19925;-64
2022/06/20 00:34:38;;;;;;;;;;;15.70;99.90;;;;;;5031468;28;19932;-65
2022/06/20 00:37:06;;;;;;;;;;;15.70;99.90;;;;;;5031848;28;19975;-64
2022/06/20 00:39:33;;;;;;;;;;;15.80;99.90;;;;;;5031587;28;19952;-65
2022/06/20 00:42:02;;;;;;;;;;;15.80;99.90;;;;;;5031963;28;19932;-64
2022/06/20 00:44:31;;;;;;;;;;;15.90;99.90;;;;;;5031593;28;19929;-64
2022/06/20 00:47:00;;;;;;;;;;;15.90;99.90;;;;;;5031586;28;19925;-64
2022/06/20 00:49:29;;;;;;;;;;;15.80;99.90;;;;;;5048210;28;19925;-64
2022/06/20 00:52:02;;;;;;;;;;;15.80;99.90;;;;;;5031500;28;19932;-64
2022/06/20 00:54:33;;;;;;;;;;;15.60;99.90;;;;;;5031179;28;20036;-65
2022/06/20 00:57:04;;;;;;;;;;;15.50;99.90;;;;;;5031752;28;19929;-63
2022/06/20 00:59:32;;;;;;;;;;;15.40;99.90;;;;;;5031373;28;20285;-63
2022/06/20 01:02:00;;;;;;;;;;;15.30;99.90;;;;;;5031615;28;19932;-64
2022/06/20 01:04:30;;;;;;;;;;;15.20;99.90;;;;;;5030766;28;19932;-63
2022/06/20 01:06:57;;;;;;;;;;;15.00;99.90;;;;;;5031242;28;20355;-63
2022/06/20 01:09:25;;;;;;;;;;;15.00;99.90;;;;;;5031305;28;19979;-65
2022/06/20 01:11:53;;;;;;;;;;;15.00;99.90;;;;;;5031258;28;19929;-64
2022/06/20 01:14:23;;;;;;;;;;;14.80;99.90;;;;;;5031012;28;19975;-64
2022/06/20 01:16:52;;;;;;;;;;;14.90;99.90;;;;;;5031289;28;19925;-64
2022/06/20 01:19:25;;;;;;;;;;;14.90;99.90;;;;;;5030658;28;19952;-64
2022/06/20 01:21:52;;;;;;;;;;;15.00;99.90;;;;;;5030316;28;19954;-64
2022/06/20 01:24:23;;;;;;;;;;;15.00;99.90;;;;;;5030631;28;20450;-65
2022/06/20 01:26:52;;;;;;;;;;;15.00;99.90;;;;;;5031027;28;19944;-64
2022/06/20 01:29:20;;;;;;;;;;;15.10;99.90;;;;;;5030869;28;19925;-64
2022/06/20 01:31:50;;;;;;;;;;;15.10;99.90;;;;;;5030013;28;19978;-65
2022/06/20 01:34:18;;;;;;;;;;;15.20;99.90;;;;;;5030462;28;19979;-64
2022/06/20 01:39:31;;;;;;;;;;;15.20;99.90;;;;;;5030523;28;19925;-65
2022/06/20 01:44:53;;;;;;;;;;;15.20;99.90;;;;;;5130256;27;19922;-63
2022/06/20 01:47:20;;;;;;;;;;;15.10;99.90;;;;;;5109865;27;20371;-64
2022/06/20 01:49:49;;;;;;;;;;;14.90;99.90;;;;;;5107513;28;19924;-63
2022/06/20 01:52:18;;;;;;;;;;;14.90;99.90;;;;;;5107677;28;19968;-64
2022/06/20 01:54:46;;;;;;;;;;;14.70;99.90;;;;;;5087325;28;20037;-64
2022/06/20 01:57:13;;;;;;;;;;;14.70;99.90;;;;;;5087504;28;19955;-64
2022/06/20 01:59:43;;;;;;;;;;;14.50;99.90;;;;;;5087218;28;19963;-64
2022/06/20 02:02:11;;;;;;;;;;;14.50;99.90;;;;;;5087030;28;19932;-63
2022/06/20 02:04:38;;;;;;;;;;;14.40;99.90;;;;;;5087938;28;19924;-64
2022/06/20 02:07:07;;;;;;;;;;;14.40;99.90;;;;;;5086921;28;19971;-64
2022/06/20 02:09:33;;;;;;;;;;;14.40;99.90;;;;;;5088107;28;19955;-62
2022/06/20 02:12:00;;;;;;;;;;;14.30;99.90;;;;;;5087332;28;19960;-63
2022/06/20 02:14:32;;;;;;;;;;;14.30;99.90;;;;;;5088069;28;19966;-64
2022/06/20 02:17:00;;;;;;;;;;;14.10;99.90;;;;;;5086812;28;19925;-64
2022/06/20 02:19:31;;;;;;;;;;;14.10;99.90;;;;;;5086435;28;19925;-63
2022/06/20 02:22:00;;;;;;;;;;;13.90;99.90;;;;;;5086742;28;19924;-63
2022/06/20 02:24:29;;;;;;;;;;;13.90;99.90;;;;;;5086194;28;20345;-65
2022/06/20 02:26:56;;;;;;;;;;;13.90;99.90;;;;;;5086901;28;19924;-64
2022/06/20 02:29:25;;;;;;;;;;;13.80;99.90;;;;;;5086498;28;19928;-64
2022/06/20 02:31:54;;;;;;;;;;;13.80;99.90;;;;;;5086679;28;19928;-63
2022/06/20 02:34:21;;;;;;;;;;;13.80;99.90;;;;;;5101808;28;20022;-64
2022/06/20 02:36:49;;;;;;;;;;;13.80;99.90;;;;;;5107006;28;19928;-64
2022/06/20 02:39:17;;;;;;;;;;;13.80;99.90;;;;;;5106737;28;19924;-64
2022/06/20 02:41:45;;;;;;;;;;;13.70;99.90;;;;;;5106658;28;19928;-64
2022/06/20 02:44:14;;;;;;;;;;;13.70;99.90;;;;;;5106434;28;19924;-63
2022/06/20 02:46:42;;;;;;;;;;;13.80;99.90;;;;;;5106488;28;19924;-63
2022/06/20 02:49:09;;;;;;;;;;;13.80;99.90;;;;;;5106325;28;20456;-63
2022/06/20 02:51:37;;;;;;;;;;;13.70;99.90;;;;;;5106700;28;19930;-65
2022/06/20 02:54:07;;;;;;;;;;;13.70;99.90;;;;;;5104873;28;20400;-64
2022/06/20 02:56:37;;;;;;;;;;;13.70;99.90;;;;;;5092725;28;19924;-64
2022/06/20 02:59:05;;;;;;;;;;;13.70;99.90;;;;;;5092613;28;19924;-63
2022/06/20 03:01:35;;;;;;;;;;;13.70;99.90;;;;;;5092843;28;19924;-64
2022/06/20 03:04:02;;;;;;;;;;;13.70;99.90;;;;;;5092263;28;19924;-63
2022/06/20 03:06:32;;;;;;;;;;;13.70;99.90;;;;;;5092984;28;19924;-63
2022/06/20 03:08:59;;;;;;;;;;;13.70;99.90;;;;;;5092605;28;19928;-65
2022/06/20 03:11:29;;;;;;;;;;;13.70;99.90;;;;;;5092511;28;19924;-64
2022/06/20 03:13:56;;;;;;;;;;;13.70;99.90;;;;;;5092544;28;19931;-64
2022/06/20 03:16:23;;;;;;;;;;;13.70;99.90;;;;;;5092393;28;20384;-64
2022/06/20 03:18:51;;;;;;;;;;;13.70;99.90;;;;;;5092323;28;19965;-62
2022/06/20 03:21:18;;;;;;;;;;;13.70;99.90;;;;;;5092597;28;19924;-64
2022/06/20 03:23:45;;;;;;;;;;;13.70;99.90;;;;;;5092244;28;19949;-64
2022/06/20 03:26:14;;;;;;;;;;;13.70;99.90;;;;;;5092525;28;19924;-64
2022/06/20 03:28:42;;;;;;;;;;;13.70;99.90;;;;;;5092373;28;19935;-65
2022/06/20 03:31:10;;;;;;;;;;;13.70;99.90;;;;;;5092245;28;19923;-64
2022/06/20 03:33:37;;;;;;;;;;;13.70;99.90;;;;;;5091693;28;19977;-64
2022/06/20 03:36:06;;;;;;;;;;;13.70;99.90;;;;;;5092327;28;19981;-63
2022/06/20 03:38:33;;;;;;;;;;;13.70;99.90;;;;;;5092043;28;20357;-64
2022/06/20 03:41:00;;;;;;;;;;;13.70;99.90;;;;;;5092063;28;19928;-64
2022/06/20 03:43:28;;;;;;;;;;;13.70;99.90;;;;;;5091718;28;19939;-64
2022/06/20 03:45:58;;;;;;;;;;;13.70;99.90;;;;;;5091730;28;20369;-64
2022/06/20 03:48:30;;;;;;;;;;;13.70;99.90;;;;;;5091895;28;20403;-64
2022/06/20 03:50:58;;;;;;;;;;;13.70;99.90;;;;;;5091873;28;19925;-64
2022/06/20 03:53:28;;;;;;;;;;;13.70;99.90;;;;;;5091682;28;19924;-64
2022/06/20 03:55:58;;;;;;;;;;;13.70;99.90;;;;;;5091608;28;20018;-65
2022/06/20 03:58:28;;;;;;;;;;;13.80;99.90;;;;;;5091668;28;19924;-64
2022/06/20 04:00:56;;;;;;;;;;;13.80;99.90;;;;;;5091259;28;19924;-65
2022/06/20 04:03:27;;;;;;;;;;;13.90;99.90;;;;;;5091802;28;20403;-65
2022/06/20 04:05:57;;;;;;;;;;;13.90;99.90;;;;;;5091257;28;19925;-65
2022/06/20 04:10:57;;;;;;;;;;;13.70;99.90;;;;;;5091419;28;19974;-65
2022/06/20 04:11:14;;;;;;;;;;;13.80;99.90;;;;;;5091223;28;19928;-65
2022/06/20 04:13:43;;;;;;;;;;;13.70;99.90;;;;;;5091072;28;20295;-64
2022/06/20 04:16:11;;;;;;;;;;;13.80;99.90;;;;;;5091480;28;19974;-64
2022/06/20 04:18:43;;;;;;;;;;;13.80;99.90;;;;;;5092563;28;19978;-64
2022/06/20 04:21:16;;;;;;;;;;;13.70;99.90;;;;;;5092293;28;19931;-65
2022/06/20 04:23:46;;;;;;;;;;;13.70;99.90;;;;;;5092027;28;20403;-64
2022/06/20 04:26:15;;;;;;;;;;;13.80;99.90;;;;;;5091270;28;19959;-64
2022/06/20 04:28:43;;;;;;;;;;;13.70;99.90;;;;;;5092271;28;19967;-65
2022/06/20 04:31:12;;;;;;;;;;;13.70;99.90;;;;;;5091081;28;19974;-65
2022/06/20 04:33:41;;;;;;;;;;;13.70;99.90;;;;;;5090573;28;20439;-64
2022/06/20 04:36:16;;;;;;;;;;;13.70;99.90;;;;;;5091006;28;19951;-64
2022/06/20 04:38:46;;;;;;;;;;;13.80;99.90;;;;;;5091156;28;20031;-64
2022/06/20 04:41:14;;;;;;;;;;;13.80;99.90;;;;;;5090891;28;20386;-64
2022/06/20 04:43:43;;;;;;;;;;;13.80;99.90;;;;;;5090435;28;19970;-63
2022/06/20 04:46:14;;;;;;;;;;;13.70;99.90;;;;;;5090872;28;19928;-67
2022/06/20 04:48:44;;;;;;;;;;;13.80;99.90;;;;;;5090625;28;19924;-63
2022/06/20 04:51:14;;;;;;;;;;;13.80;99.90;;;;;;5090492;28;20388;-65
2022/06/20 04:53:43;;;;;;;;;;;13.70;99.90;;;;;;5090480;28;19924;-64
2022/06/20 04:56:11;;;;;;;;;;;13.70;99.90;;;;;;5090709;28;19970;-63
2022/06/20 04:58:40;;;;;;;;;;;13.70;99.90;;;;;;5091004;28;19928;-63
2022/06/20 05:01:07;;;;;;;;;;;13.70;99.90;;;;;;5089036;28;19924;-61
2022/06/20 05:03:36;;;;;;;;;;;13.70;99.90;;;;;;5062341;28;19925;-64
2022/06/20 05:06:06;;;;;;;;;;;13.70;99.90;;;;;;5069403;28;19935;-64
2022/06/20 05:08:34;;;;;;;;;;;13.80;99.90;;;;;;5050094;28;19925;-65
2022/06/20 05:11:03;;;;;;;;;;;13.80;99.90;;;;;;5049762;28;19990;-64
2022/06/20 05:13:34;;;;;;;;;;;13.80;99.90;;;;;;5061090;28;19928;-64
2022/06/20 05:16:01;;;;;;;;;;;13.90;99.90;;;;;;5070232;28;19932;-65
2022/06/20 05:18:31;;;;;;;;;;;13.90;99.90;;;;;;5069630;28;19925;-66
2022/06/20 05:21:00;;;;;;;;;;;14.00;99.90;;;;;;5069707;28;19924;-65
2022/06/20 05:23:32;;;;;;;;;;;14.00;99.90;;;;;;5069562;28;20334;-65
2022/06/20 05:25:59;;;;;;;;;;;14.00;99.90;;;;;;5070050;28;19932;-63
2022/06/20 05:28:26;;;;;;;;;;;14.00;99.90;;;;;;5070137;28;19930;-66
2022/06/20 05:30:53;;;;;;;;;;;14.00;99.90;;;;;;5069900;28;19924;-64
2022/06/20 05:33:24;;;;;;;;;;;13.90;99.90;;;;;;5069730;28;19925;-64
2022/06/20 05:35:53;;;;;;;;;;;14.10;99.90;;;;;;5069975;28;19974;-63
2022/06/20 05:38:24;;;;;;;;;;;14.20;99.90;;;;;;5069640;28;20414;-64
2022/06/20 05:40:54;;;;;;;;;;;14.30;99.90;;;;;;5069386;28;20399;-65
2022/06/20 05:43:21;;;;;;;;;;;14.40;99.90;;;;;;5069067;28;19925;-65
2022/06/20 05:45:51;;;;;;;;;;;14.50;99.90;;;;;;5103393;28;19970;-64
2022/06/20 05:48:18;;;;;;;;;;;14.60;99.90;;;;;;5103583;28;19925;-64
2022/06/20 05:50:47;;;;;;;;;;;14.50;99.90;;;;;;5102999;28;19929;-64
2022/06/20 05:53:17;;;;;;;;;;;14.50;99.90;;;;;;5069581;28;19986;-64
2022/06/20 05:55:45;;;;;;;;;;;14.50;99.90;;;;;;5069843;28;20358;-65
2022/06/20 05:58:17;;;;;;;;;;;14.60;99.90;;;;;;5069386;28;20346;-64
2022/06/20 06:00:44;;;;;;;;;;;14.50;99.90;;;;;;5069602;28;19932;-65
2022/06/20 06:03:13;;;;;;;;;;;14.60;99.90;;;;;;5069337;28;19924;-65
2022/06/20 06:05:40;;;;;;;;;;;14.50;99.90;;;;;;5069295;28;19928;-66
2022/06/20 06:08:13;;;;;;;;;;;14.50;99.90;;;;;;5085905;28;19928;-65
2022/06/20 06:10:43;;;;;;;;;;;14.40;99.90;;;;;;5086810;28;20292;-64
2022/06/20 06:13:14;;;;;;;;;;;14.40;99.90;;;;;;5070246;28;19924;-64
2022/06/20 06:16:46;;;;;;;;;;;14.20;99.90;;;;;;5070105;28;19932;-64
2022/06/20 06:18:34;;;;;;;;;;;14.10;99.90;;;;;;5070351;28;20027;-64
2022/06/20 06:21:00;;;;;;;;;;;14.10;99.90;;;;;;5070413;28;19924;-66
2022/06/20 06:23:27;;;;;;;;;;;14.10;99.90;;;;;;5070004;28;20399;-64
2022/06/20 06:25:54;;;;;;;;;;;13.90;99.90;;;;;;5102851;28;19928;-64
2022/06/20 06:28:24;;;;;;;;;;;13.90;99.90;;;;;;5104128;28;20038;-64
2022/06/20 06:30:55;;;;;;;;;;;14.00;99.90;;;;;;5105950;28;20003;-64
2022/06/20 06:33:24;;;;;;;;;;;14.00;99.90;;;;;;5072924;28;19974;-65
2022/06/20 06:35:54;;;;;;;;;;;14.00;99.90;;;;;;5089910;28;19973;-65
2022/06/20 06:38:24;;;;;;;;;;;14.00;99.90;;;;;;5106214;28;19929;-64
2022/06/20 06:40:51;;;;;;;;;;;14.00;99.90;;;;;;5072349;28;19966;-64
2022/06/20 06:43:20;;;;;;;;;;;14.10;99.90;;;;;;5079955;28;19924;-66
2022/06/20 06:45:48;;;;;;;;;;;14.10;99.90;;;;;;5127002;27;19924;-65
2022/06/20 06:48:18;;;;;;;;;;;14.20;99.90;;;;;;5092899;28;19928;-64
2022/06/20 06:50:46;;;;;;;;;;;14.20;99.90;;;;;;5092841;28;19928;-64
2022/06/20 06:53:15;;;;;;;;;;;14.20;99.90;;;;;;5092908;28;19931;-65
2022/06/20 06:55:43;;;;;;;;;;;14.20;99.90;;;;;;5092442;28;19928;-64
2022/06/20 06:58:14;;;;;;;;;;;14.20;99.90;;;;;;5092738;28;19924;-64
2022/06/20 07:00:42;;;;;;;;;;;14.10;99.90;;;;;;5091823;28;19928;-64
2022/06/20 07:03:14;;;;;;;;;;;14.10;99.90;;;;;;5092207;28;19959;-65
2022/06/20 07:05:44;;;;;;;;;;;14.30;99.90;;;;;;5092226;28;19977;-64
2022/06/20 07:08:13;;;;;;;;;;;14.40;99.90;;;;;;5122338;27;19924;-64
2022/06/20 07:10:44;;;;;;;;;;;14.60;99.90;;;;;;5092371;28;19932;-66
2022/06/20 07:13:14;;;;;;;;;;;14.70;99.90;;;;;;5092406;28;19925;-65
2022/06/20 07:15:42;;;;;;;;;;;14.70;99.90;;;;;;5092209;28;19924;-64
2022/06/20 07:18:13;;;;;;;;;;;14.70;99.90;;;;;;5092292;28;19931;-65
2022/06/20 07:20:41;;;;;;;;;;;14.70;99.90;;;;;;5108502;28;19932;-64
2022/06/20 07:23:12;;;;;;;;;;;14.70;99.90;;;;;;5091830;28;19928;-65
2022/06/20 07:25:41;;;;;;;;;;;14.80;99.90;;;;;;5125945;27;20379;-64
2022/06/20 07:28:12;;;;;;;;;;;14.80;99.90;;;;;;5091528;28;19924;-64
2022/06/20 07:30:41;;;;;;;;;;;14.80;99.90;;;;;;5092080;28;19928;-65
2022/06/20 07:33:10;;;;;;;;;;;14.80;99.90;;;;;;5105508;28;19969;-64
2022/06/20 07:35:41;;;;;;;;;;;14.90;99.90;;;;;;5112328;28;19923;-65
2022/06/20 07:38:10;;;;;;;;;;;15.00;99.90;;;;;;5103483;28;19924;-64
2022/06/20 07:40:43;;;;;;;;;;;15.10;99.90;;;;;;5088799;28;19925;-64
2022/06/20 07:43:12;;;;;;;;;;;15.10;99.90;;;;;;5085302;28;20288;-65
2022/06/20 07:45:40;;;;;;;;;;;15.10;99.90;;;;;;5105106;28;19925;-64
2022/06/20 07:48:09;;;;;;;;;;;15.20;99.90;;;;;;5105766;28;20391;-63
2022/06/20 07:50:38;;;;;;;;;;;15.20;99.90;;;;;;5105243;28;20396;-64
2022/06/20 07:53:07;;;;;;;;;;;15.30;99.90;;;;;;5105497;28;19936;-64
2022/06/20 07:55:35;;;;;;;;;;;15.50;99.90;;;;;;5104619;28;19925;-65
2022/06/20 07:58:05;;;;;;;;;;;15.60;99.90;;;;;;5087834;28;19924;-64
2022/06/20 08:00:35;;;;;;;;;;;15.80;99.90;;;;;;5088360;28;19928;-65
2022/06/20 08:03:05;;;;;;;;;;;15.80;99.90;;;;;;5088148;28;19924;-64
2022/06/20 08:05:34;;;;;;;;;;;15.90;99.90;;;;;;5071073;28;19924;-64
2022/06/20 08:08:04;;;;;;;;;;;15.80;99.90;;;;;;5088051;28;19964;-64
2022/06/20 08:10:34;;;;;;;;;;;15.80;99.90;;;;;;5071753;28;19964;-64
2022/06/20 08:13:04;;;;;;;;;;;15.80;99.90;;;;;;5087827;28;19967;-64
2022/06/20 08:15:34;;;;;;;;;;;15.90;99.90;;;;;;5088217;28;19977;-65
2022/06/20 08:18:01;;;;;;;;;;;15.90;99.90;;;;;;5087144;28;19974;-64
2022/06/20 08:20:31;;;;;;;;;;;16.40;99.90;;;;;;5087331;28;19986;-65
2022/06/20 08:23:01;;;;;;;;;;;16.60;99.90;;;;;;5052059;28;19924;-65
2022/06/20 08:25:30;;;;;;;;;;;16.70;99.90;;;;;;5052083;28;19932;-64
2022/06/20 08:27:59;;;;;;;;;;;16.80;99.90;;;;;;5067559;28;19956;-64
2022/06/20 08:30:29;;;;;;;;;;;17.00;99.90;;;;;;5067385;28;20412;-64
2022/06/20 08:32:59;;;;;;;;;;;17.10;99.90;;;;;;5065313;28;19931;-64
2022/06/20 08:35:29;;;;;;;;;;;17.40;99.90;;;;;;5070522;28;20371;-64
2022/06/20 08:37:57;;;;;;;;;;;17.50;99.90;;;;;;5070197;28;19932;-64
2022/06/20 08:40:42;;;;;;;;;;;17.60;99.90;;;;;;5071779;28;19967;-63
2022/06/20 08:43:19;;;;;;;;;;;17.50;99.90;;;;;;5063419;28;20413;-63
2022/06/20 08:45:55;;;;;;;;;;;17.40;99.90;;;;;;5090559;28;19975;-65
2022/06/20 08:48:39;;;;;;;;;;;17.40;99.90;;;;;;5090983;28;19924;-64
2022/06/20 08:51:14;;;;;;;;;;;17.30;99.90;;;;;;5090406;28;20307;-64
2022/06/20 08:53:54;;;;;;;;;;;17.20;99.90;;;;;;5089676;28;19924;-64
2022/06/20 08:56:36;;;;;;;;;;;17.20;99.90;;;;;;5090810;28;20022;-64
2022/06/20 08:59:09;;;;;;;;;;;17.40;99.90;;;;;;5081809;28;19959;-63
2022/06/20 09:01:41;;;;;;;;;;;17.60;99.90;;;;;;5090635;28;19924;-64
2022/06/20 09:04:24;;;;;;;;;;;17.80;99.90;;;;;;5088348;28;19967;-65
2022/06/20 09:07:06;;;;;;;;;;;18.00;99.90;;;;;;5089991;28;19955;-66
2022/06/20 09:09:42;;;;;;;;;;;18.40;99.90;;;;;;5089978;28;19967;-65
2022/06/20 09:12:14;;;;;;;;;;;18.70;99.90;;;;;;5089931;28;20018;-65
2022/06/20 09:14:49;;;;;;;;;;;18.90;99.90;;;;;;5090031;28;19951;-64
2022/06/20 09:17:19;;;;;;;;;;;18.80;99.90;;;;;;5089766;28;20443;-65
2022/06/20 09:20:02;;;;;;;;;;;19.20;99.90;;;;;;5090049;28;19970;-65
2022/06/20 09:22:38;;;;;;;;;;;19.40;99.90;;;;;;5091617;28;19978;-65
2022/06/20 09:25:09;;;;;;;;;;;19.30;99.90;;;;;;5090890;28;20395;-64
2022/06/20 09:27:44;;;;;;;;;;;19.00;99.90;;;;;;5090069;28;19924;-63
2022/06/20 09:30:14;;;;;;;;;;;18.70;99.90;;;;;;5089818;28;19924;-63
2022/06/20 09:32:52;;;;;;;;;;;18.40;99.90;;;;;;5089418;28;19967;-63
2022/06/20 09:35:31;;;;;;;;;;;18.30;99.90;;;;;;5091384;28;19963;-64
2022/06/20 09:38:05;;;;;;;;;;;18.20;99.90;;;;;;5091316;28;19932;-64
2022/06/20 09:40:37;;;;;;;;;;;18.30;99.90;;;;;;5090933;28;19990;-63
2022/06/20 09:43:09;;;;;;;;;;;18.20;99.90;;;;;;5088707;28;19973;-63
2022/06/20 09:45:40;;;;;;;;;;;18.30;99.90;;;;;;5093470;28;20487;-62
2022/06/20 09:48:12;;;;;;;;;;;18.40;99.90;;;;;;5081743;28;19924;-64
2022/06/20 09:50:46;;;;;;;;;;;18.60;99.90;;;;;;5089504;28;19924;-64
2022/06/20 09:53:16;;;;;;;;;;;18.90;99.90;;;;;;5089518;28;20353;-64
2022/06/20 09:55:49;;;;;;;;;;;19.20;99.90;;;;;;5089897;28;19927;-63
2022/06/20 09:58:19;;;;;;;;;;;19.60;99.90;;;;;;5089040;28;19924;-64
2022/06/20 10:00:50;;;;;;;;;;;19.80;99.90;;;;;;5095355;28;19924;-64
2022/06/20 10:03:20;;;;;;;;;;;19.70;99.90;;;;;;5091353;28;20299;-63
2022/06/20 10:05:52;;;;;;;;;;;19.10;99.90;;;;;;5091701;28;20333;-64
2022/06/20 10:08:24;;;;;;;;;;;18.80;99.90;;;;;;5093526;28;20407;-64
2022/06/20 10:10:55;;;;;;;;;;;18.50;99.90;;;;;;5093442;28;19924;-63
2022/06/20 10:13:24;;;;;;;;;;;18.40;99.90;;;;;;5093114;28;20281;-65
2022/06/20 10:15:56;;;;;;;;;;;18.30;99.90;;;;;;5093285;28;20345;-64
2022/06/20 10:18:28;;;;;;;;;;;18.40;99.90;;;;;;5093453;28;19977;-65
2022/06/20 10:21:01;;;;;;;;;;;18.50;99.90;;;;;;5093324;28;19974;-64
2022/06/20 10:23:38;;;;;;;;;;;18.40;99.90;;;;;;5093386;28;19924;-64
2022/06/20 10:26:16;;;;;;;;;;;18.40;99.90;;;;;;5093709;28;19924;-65
2022/06/20 10:28:45;;;;;;;;;;;18.40;99.90;;;;;;5093482;28;19928;-65
2022/06/20 10:31:19;;;;;;;;;;;18.20;99.90;;;;;;5093454;28;19924;-64
2022/06/20 10:33:52;;;;;;;;;;;18.60;99.90;;;;;;5093137;28;19927;-63
2022/06/20 10:36:22;;;;;;;;;;;19.00;99.90;;;;;;5093430;28;19932;-64
2022/06/20 10:39:02;;;;;;;;;;;19.40;99.90;;;;;;5093736;28;20398;-62
2022/06/20 10:41:33;;;;;;;;;;;19.70;99.90;;;;;;5093523;28;19935;-62
2022/06/20 10:44:03;;;;;;;;;;;20.10;99.90;;;;;;5092967;28;19924;-64
2022/06/20 10:46:34;;;;;;;;;;;20.20;99.90;;;;;;5093386;28;20439;-65
2022/06/20 10:49:12;;;;;;;;;;;20.10;99.90;;;;;;5093356;28;19993;-63
2022/06/20 10:51:44;;;;;;;;;;;20.00;99.90;;;;;;5093386;28;19928;-63
2022/06/20 10:54:18;;;;;;;;;;;20.00;99.90;;;;;;5093107;28;19924;-63
2022/06/20 10:56:48;;;;;;;;;;;20.00;99.90;;;;;;5093163;28;20398;-64
2022/06/20 10:59:20;;;;;;;;;;;20.30;99.90;;;;;;5092830;28;19928;-64
2022/06/20 11:01:50;;;;;;;;;;;20.60;99.90;;;;;;5093054;28;19928;-64
2022/06/20 11:04:40;;;;;;;;;;;20.40;99.90;;;;;;5092502;28;19989;-64
2022/06/20 11:07:18;;;;;;;;;;;20.20;99.90;;;;;;5092897;28;19985;-64
2022/06/20 11:09:49;;;;;;;;;;;20.00;99.90;;;;;;5092776;28;19977;-64
2022/06/20 11:12:21;;;;;;;;;;;20.30;99.90;;;;;;5092491;28;19932;-63
2022/06/20 11:14:53;;;;;;;;;;;20.50;99.90;;;;;;5092569;28;19924;-64
2022/06/20 11:17:24;;;;;;;;;;;20.60;99.90;;;;;;5092113;28;20280;-64
2022/06/20 11:19:56;;;;;;;;;;;20.90;99.90;;;;;;5092191;28;19936;-63
2022/06/20 11:22:30;;;;;;;;;;;21.10;99.90;;;;;;5092468;28;20307;-64
2022/06/20 11:25:02;;;;;;;;;;;21.60;99.90;;;;;;5092179;28;19985;-63
2022/06/20 11:27:37;;;;;;;;;;;22.00;99.90;;;;;;5092448;28;19935;-63
2022/06/20 11:30:08;;;;;;;;;;;21.70;99.90;;;;;;5092242;28;19948;-64
2022/06/20 11:32:39;;;;;;;;;;;21.70;99.90;;;;;;5091960;28;20495;-63
2022/06/20 11:35:15;;;;;;;;;;;22.00;99.90;;;;;;5109015;28;19924;-62
2022/06/20 11:37:51;;;;;;;;;;;21.60;99.90;;;;;;5092279;28;19928;-64
2022/06/20 11:40:29;;;;;;;;;;;21.10;99.90;;;;;;5092175;28;19924;-64
2022/06/20 11:43:06;;;;;;;;;;;21.10;99.90;;;;;;5091836;28;19927;-64
2022/06/20 11:45:41;;;;;;;;;;;21.40;99.90;;;;;;5092174;28;19924;-64
2022/06/20 11:48:14;;;;;;;;;;;21.70;99.90;;;;;;5092159;28;19970;-64
2022/06/20 11:50:43;;;;;;;;;;;21.90;99.90;;;;;;5091676;28;19959;-64
2022/06/20 11:53:15;;;;;;;;;;;23.10;99.90;;;;;;5091657;28;19928;-64
2022/06/20 11:55:47;;;;;;;;;;;24.50;99.90;;;;;;5091949;28;19969;-65
2022/06/20 11:58:17;;;;;;;;;;;26.00;99.90;;;;;;5091944;28;19930;-64
2022/06/20 12:00:46;;;;;;;;;;;26.50;99.90;;;;;;5091444;28;19924;-65
2022/06/20 12:03:18;;;;;;;;;;;26.90;99.90;;;;;;5108160;28;20345;-64
2022/06/20 12:05:48;;;;;;;;;;;26.80;99.90;;;;;;5091189;28;20023;-65
2022/06/20 12:08:28;;;;;;;;;;;28.10;99.90;;;;;;5091471;28;19931;-64
2022/06/20 12:10:56;;;;;;;;;;;29.00;99.90;;;;;;5091352;28;19924;-64
2022/06/20 12:13:32;;;;;;;;;;;28.50;99.90;;;;;;5091573;28;20474;-64
2022/06/20 12:16:05;;;;;;;;;;;27.40;99.90;;;;;;5091632;28;19932;-64
2022/06/20 12:18:40;;;;;;;;;;;27.20;99.90;;;;;;5091699;28;19977;-63
2022/06/20 12:23:59;;;;;;;;;;;25.10;99.90;;;;;;5091101;28;20015;-65
2022/06/20 12:26:31;;;;;;;;;;;25.60;99.90;;;;;;5091240;28;20337;-63
2022/06/20 12:28:58;;;;;;;;;;;26.80;99.90;;;;;;5090673;28;19931;-64
2022/06/20 12:31:29;;;;;;;;;;;28.10;99.90;;;;;;5091245;28;19925;-63
2022/06/20 12:33:58;;;;;;;;;;;29.30;99.90;;;;;;5090737;28;19928;-63
2022/06/20 12:36:31;;;;;;;;;;;29.80;99.90;;;;;;5090958;28;19924;-64
2022/06/20 12:39:02;;;;;;;;;;;29.30;99.90;;;;;;5090683;28;19993;-64
2022/06/20 12:41:31;;;;;;;;;;;30.10;99.90;;;;;;5091307;28;19924;-65
2022/06/20 12:44:05;;;;;;;;;;;28.70;99.90;;;;;;5090349;28;19924;-64
2022/06/20 12:46:39;;;;;;;;;;;27.00;99.90;;;;;;5090960;28;19932;-64
2022/06/20 12:49:10;;;;;;;;;;;26.50;99.90;;;;;;5090520;28;19924;-64
2022/06/20 12:51:42;;;;;;;;;;;26.10;99.90;;;;;;5091001;28;19924;-64
2022/06/20 12:54:20;;;;;;;;;;;26.00;99.90;;;;;;5090554;28;19924;-64
2022/06/20 12:56:53;;;;;;;;;;;26.40;99.90;;;;;;5090625;28;20318;-64
2022/06/20 12:59:33;;;;;;;;;;;27.40;99.90;;;;;;5090429;28;19973;-64
2022/06/20 13:02:06;;;;;;;;;;;28.30;99.90;;;;;;5090719;28;20342;-64
2022/06/20 13:04:46;;;;;;;;;;;28.50;99.90;;;;;;5090401;28;20410;-63
2022/06/20 13:07:36;;;;;;;;;;;28.40;99.90;;;;;;5090535;28;20389;-64
2022/06/20 13:10:12;;;;;;;;;;;28.10;99.90;;;;;;5090232;28;19924;-65
2022/06/20 13:12:46;;;;;;;;;;;26.90;99.90;;;;;;5090432;28;19924;-64
2022/06/20 13:15:31;;;;;;;;;;;26.20;99.90;;;;;;5089958;28;20280;-64
2022/06/20 13:18:05;;;;;;;;;;;26.80;99.90;;;;;;5090000;28;19928;-65
2022/06/20 13:20:39;;;;;;;;;;;27.60;99.90;;;;;;5090317;28;19928;-64
2022/06/20 13:23:26;;;;;;;;;;;26.90;99.90;;;;;;5090385;28;20334;-64
2022/06/20 13:25:56;;;;;;;;;;;27.40;99.90;;;;;;5090206;28;19924;-65
2022/06/20 13:28:26;;;;;;;;;;;27.60;99.90;;;;;;5090197;28;19924;-65
2022/06/20 13:31:00;;;;;;;;;;;27.30;99.90;;;;;;5090109;28;19931;-64
2022/06/20 13:33:33;;;;;;;;;;;27.60;99.90;;;;;;5089787;28;19925;-64
2022/06/20 13:36:02;;;;;;;;;;;27.60;99.90;;;;;;5090181;28;19924;-65
2022/06/20 13:38:36;;;;;;;;;;;27.80;99.90;;;;;;5106720;28;20357;-64
2022/06/20 13:41:11;;;;;;;;;;;28.70;99.90;;;;;;5106720;28;19928;-64
2022/06/20 13:43:45;;;;;;;;;;;28.80;99.90;;;;;;5089763;28;19924;-63
2022/06/20 13:46:15;;;;;;;;;;;27.90;99.90;;;;;;5089850;28;19978;-65
2022/06/20 13:48:43;;;;;;;;;;;27.70;99.90;;;;;;5089863;28;20353;-65
2022/06/20 13:51:12;;;;;;;;;;;28.60;99.90;;;;;;5089726;28;19924;-64
2022/06/20 13:53:44;;;;;;;;;;;29.40;99.90;;;;;;5089589;28;19963;-64
2022/06/20 13:56:20;;;;;;;;;;;29.60;99.90;;;;;;5089797;28;20348;-65
2022/06/20 13:58:53;;;;;;;;;;;28.20;99.90;;;;;;5089644;28;20276;-62
2022/06/20 14:01:20;;;;;;;;;;;27.90;99.90;;;;;;5089766;28;19928;-65
2022/06/20 14:03:48;;;;;;;;;;;28.30;99.90;;;;;;5089202;28;19924;-65
2022/06/20 14:06:17;;;;;;;;;;;28.00;99.90;;;;;;5089944;28;19967;-65
2022/06/20 14:08:45;;;;;;;;;;;27.60;99.90;;;;;;5091348;28;19924;-65
2022/06/20 14:11:23;;;;;;;;;;;26.90;99.90;;;;;;5103865;28;19931;-64
2022/06/20 14:13:51;;;;;;;;;;;26.10;99.90;;;;;;5101308;28;20432;-64
2022/06/20 14:16:21;;;;;;;;;;;25.70;99.90;;;;;;5109874;28;19924;-65
2022/06/20 14:18:49;;;;;;;;;;;26.20;99.90;;;;;;5109652;28;20442;-65
2022/06/20 14:21:16;;;;;;;;;;;26.80;99.90;;;;;;5110000;28;19923;-64
2022/06/20 14:23:48;;;;;;;;;;;26.90;99.90;;;;;;5108253;28;20355;-64
2022/06/20 14:26:25;;;;;;;;;;;27.60;99.90;;;;;;5089020;28;20292;-64
2022/06/20 14:28:52;;;;;;;;;;;28.30;99.90;;;;;;5087555;28;19930;-63
2022/06/20 14:31:20;;;;;;;;;;;28.60;99.90;;;;;;5089204;28;19924;-64
2022/06/20 14:33:49;;;;;;;;;;;29.60;99.90;;;;;;5088602;28;19924;-64
2022/06/20 14:36:20;;;;;;;;;;;29.70;99.90;;;;;;5089173;28;20383;-64
2022/06/20 14:38:48;;;;;;;;;;;29.70;99.90;;;;;;5103852;28;19924;-65
2022/06/20 14:44:08;;;;;;;;;;;29.80;99.90;;;;;;5119897;28;19920;-65
2022/06/20 14:46:43;;;;;;;;;;;30.00;99.90;;;;;;5088734;28;19924;-64